createdAt,value
2022-12-19T00:00:10.465Z,2.80
2022-12-19T00:03:02.622Z,2.90
2022-12-19T00:05:29.816Z,2.90
2022-12-19T00:07:57.250Z,2.80
2022-12-19T00:10:26.011Z,2.80
2022-12-19T00:12:53.171Z,2.80
2022-12-19T00:15:20.160Z,2.80
2022-12-19T00:17:47.355Z,2.80
2022-12-19T00:20:15.955Z,2.80
2022-12-19T00:22:46.416Z,2.80
2022-12-19T00:25:13.455Z,2.80
2022-12-19T00:27:41.639Z,2.80
2022-12-19T00:30:09.934Z,2.80
2022-12-19T00:32:38.025Z,2.80
2022-12-19T00:35:05.436Z,2.80
2022-12-19T00:37:35.093Z,2.80
2022-12-19T00:40:04.452Z,2.80
2022-12-19T00:42:31.608Z,2.80
2022-12-19T00:44:58.560Z,2.80
2022-12-19T00:47:26.823Z,2.80
2022-12-19T00:49:53.816Z,2.80
2022-12-19T00:52:21.961Z,2.80
2022-12-19T00:54:50.571Z,2.80
2022-12-19T00:57:19.888Z,2.80
2022-12-19T00:59:47.024Z,2.80
2022-12-19T01:02:14.332Z,2.80
2022-12-19T01:04:41.994Z,2.70
2022-12-19T01:07:13.008Z,2.70
2022-12-19T01:09:40.109Z,2.80
2022-12-19T01:12:29.881Z,2.70
2022-12-19T01:15:04.481Z,2.70
2022-12-19T01:17:37.780Z,2.80
2022-12-19T01:20:21.368Z,2.70
2022-12-19T01:22:59.921Z,2.70
2022-12-19T01:25:28.322Z,2.70
2022-12-19T01:27:57.310Z,2.70
2022-12-19T01:30:25.212Z,2.70
2022-12-19T01:32:53.808Z,2.70
2022-12-19T01:35:21.673Z,2.70
2022-12-19T01:38:07.627Z,2.70
2022-12-19T01:40:36.893Z,2.70
2022-12-19T01:43:04.931Z,2.60
2022-12-19T01:45:36.603Z,2.60
2022-12-19T01:48:15.842Z,2.70
2022-12-19T01:51:04.026Z,2.70
2022-12-19T01:53:49.753Z,2.60
2022-12-19T01:56:29.216Z,2.60
2022-12-19T01:59:06.503Z,2.60
2022-12-19T02:01:47.689Z,2.60
2022-12-19T02:04:26.272Z,2.60
2022-12-19T02:06:59.461Z,2.60
2022-12-19T02:09:33.460Z,2.60
2022-12-19T02:12:01.103Z,2.60
2022-12-19T02:14:29.630Z,2.60
2022-12-19T02:17:32.841Z,2.60
2022-12-19T02:20:25.137Z,2.60
2022-12-19T02:23:00.968Z,2.60
2022-12-19T02:25:46.899Z,2.60
2022-12-19T02:28:50.246Z,2.60
2022-12-19T02:31:48.054Z,2.60
2022-12-19T02:34:44.689Z,2.60
2022-12-19T02:37:48.119Z,2.50
2022-12-19T02:40:39.286Z,2.50
2022-12-19T02:43:10.388Z,2.50
2022-12-19T02:45:39.827Z,2.50
2022-12-19T02:48:09.262Z,2.50
2022-12-19T02:50:45.341Z,2.50
2022-12-19T02:53:16.179Z,2.50
2022-12-19T02:56:10.381Z,2.50
2022-12-19T02:59:12.904Z,2.50
2022-12-19T03:02:07.866Z,2.50
2022-12-19T03:05:02.819Z,2.50
2022-12-19T03:08:05.992Z,2.40
2022-12-19T03:10:43.643Z,2.50
2022-12-19T03:13:50.306Z,2.50
2022-12-19T03:16:17.716Z,2.40
2022-12-19T03:18:45.479Z,2.50
2022-12-19T03:21:37.027Z,2.40
2022-12-19T03:24:08.007Z,2.40
2022-12-19T03:26:43.377Z,2.40
2022-12-19T03:29:59.590Z,2.40
2022-12-19T03:32:30.501Z,2.40
2022-12-19T03:35:04.447Z,2.40
2022-12-19T03:37:39.499Z,2.40
2022-12-19T03:40:17.315Z,2.40
2022-12-19T03:43:07.700Z,2.40
2022-12-19T03:45:44.737Z,2.40
2022-12-19T03:48:38.754Z,2.40
2022-12-19T03:51:29.133Z,2.40
2022-12-19T03:54:08.590Z,2.30
2022-12-19T03:56:44.667Z,2.30
2022-12-19T03:59:22.652Z,2.40
2022-12-19T04:01:53.911Z,2.40
2022-12-19T04:04:24.038Z,2.30
2022-12-19T04:06:52.988Z,2.30
2022-12-19T04:09:23.954Z,2.30
2022-12-19T04:12:00.198Z,2.30
2022-12-19T04:14:33.499Z,2.40
2022-12-19T04:17:31.172Z,2.30
2022-12-19T04:20:06.241Z,2.30
2022-12-19T04:23:07.894Z,2.30
2022-12-19T04:25:45.365Z,2.30
2022-12-19T04:28:26.996Z,2.20
2022-12-19T04:30:55.002Z,2.30
2022-12-19T04:33:22.149Z,2.30
2022-12-19T04:35:49.488Z,2.30
2022-12-19T04:38:16.767Z,2.20
2022-12-19T04:40:44.291Z,2.20
2022-12-19T04:43:11.176Z,2.20
2022-12-19T04:45:41.995Z,2.20
2022-12-19T04:48:09.749Z,2.20
2022-12-19T04:50:37.266Z,2.20
2022-12-19T04:53:05.499Z,2.20
2022-12-19T04:55:33.215Z,2.20
2022-12-19T04:58:06.967Z,2.20
2022-12-19T05:00:34.591Z,2.20
2022-12-19T05:03:01.768Z,2.20
2022-12-19T05:05:29.755Z,2.20
2022-12-19T05:07:56.646Z,2.20
2022-12-19T05:10:24.082Z,2.20
2022-12-19T05:12:51.121Z,2.20
2022-12-19T05:15:18.531Z,2.20
2022-12-19T05:17:45.427Z,2.20
2022-12-19T05:20:12.820Z,2.20
2022-12-19T05:22:39.775Z,2.20
2022-12-19T05:25:08.109Z,2.20
2022-12-19T05:27:35.274Z,2.20
2022-12-19T05:30:02.693Z,2.20
2022-12-19T05:32:32.219Z,2.10
2022-12-19T05:34:59.444Z,2.20
2022-12-19T05:37:26.606Z,2.10
2022-12-19T05:39:53.883Z,2.20
2022-12-19T05:42:21.059Z,2.20
2022-12-19T05:44:48.296Z,2.10
2022-12-19T05:47:15.199Z,2.10
2022-12-19T05:49:42.526Z,2.10
2022-12-19T05:52:09.471Z,2.10
2022-12-19T05:54:37.099Z,2.10
2022-12-19T05:57:04.295Z,2.10
2022-12-19T05:59:31.603Z,2.10
2022-12-19T06:01:58.557Z,2.10
2022-12-19T06:04:26.922Z,2.10
2022-12-19T06:06:54.052Z,2.10
2022-12-19T06:09:21.291Z,2.10
2022-12-19T06:11:48.578Z,2.10
2022-12-19T06:14:15.909Z,2.00
2022-12-19T06:16:42.900Z,2.10
2022-12-19T06:19:10.179Z,2.10
2022-12-19T06:21:42.242Z,2.00
2022-12-19T06:24:15.139Z,2.00
2022-12-19T06:26:42.279Z,2.00
2022-12-19T06:29:09.742Z,2.00
2022-12-19T06:31:37.000Z,2.00
2022-12-19T06:34:04.303Z,2.00
2022-12-19T06:36:31.606Z,2.00
2022-12-19T06:38:59.312Z,2.00
2022-12-19T06:41:45.891Z,2.00
2022-12-19T06:44:17.418Z,2.00
2022-12-19T06:46:44.720Z,2.00
2022-12-19T06:49:12.422Z,2.00
2022-12-19T06:51:39.500Z,2.00
2022-12-19T06:54:06.834Z,2.00
2022-12-19T06:56:37.056Z,1.90
2022-12-19T06:59:07.101Z,1.90
2022-12-19T07:01:50.557Z,1.90
2022-12-19T07:04:26.666Z,1.90
2022-12-19T07:06:54.313Z,1.90
2022-12-19T07:09:22.427Z,1.90
2022-12-19T07:11:49.574Z,1.90
2022-12-19T07:14:16.754Z,1.90
2022-12-19T07:16:43.873Z,1.90
2022-12-19T07:19:12.452Z,1.90
2022-12-19T07:21:40.261Z,1.90
2022-12-19T07:24:08.908Z,1.90
2022-12-19T07:26:36.259Z,1.90
2022-12-19T07:29:04.510Z,1.90
2022-12-19T07:31:31.525Z,1.80
2022-12-19T07:33:59.260Z,1.80
2022-12-19T07:36:26.546Z,1.90
2022-12-19T07:38:53.799Z,1.90
2022-12-19T07:41:20.847Z,1.80
2022-12-19T07:43:48.282Z,1.80
2022-12-19T07:46:15.326Z,1.80
2022-12-19T07:48:42.861Z,1.80
2022-12-19T07:51:09.897Z,1.80
2022-12-19T07:53:37.162Z,1.80
2022-12-19T07:56:04.255Z,1.80
2022-12-19T07:58:31.822Z,1.80
2022-12-19T08:01:03.463Z,1.80
2022-12-19T08:03:33.379Z,1.80
2022-12-19T08:06:06.745Z,1.80
2022-12-19T08:08:35.303Z,1.80
2022-12-19T08:11:11.049Z,1.80
2022-12-19T08:13:44.645Z,1.70
2022-12-19T08:16:14.406Z,1.80
2022-12-19T08:18:41.714Z,1.70
2022-12-19T08:21:10.764Z,1.80
2022-12-19T08:23:41.305Z,1.70
2022-12-19T08:26:15.376Z,1.70
2022-12-19T08:28:43.410Z,1.70
2022-12-19T08:31:16.840Z,1.70
2022-12-19T08:33:44.454Z,1.70
2022-12-19T08:36:15.106Z,1.70
2022-12-19T08:38:42.454Z,1.70
2022-12-19T08:41:10.282Z,1.70
2022-12-19T08:43:38.335Z,1.70
2022-12-19T08:46:06.254Z,1.70
2022-12-19T08:48:34.299Z,1.70
2022-12-19T08:51:05.661Z,1.70
2022-12-19T08:53:36.699Z,1.70
2022-12-19T08:56:13.932Z,1.70
2022-12-19T08:58:42.335Z,1.70
2022-12-19T09:01:15.180Z,1.70
2022-12-19T09:04:19.096Z,1.70
2022-12-19T09:06:30.028Z,1.60
2022-12-19T09:09:00.198Z,1.60
2022-12-19T09:11:28.313Z,1.60
2022-12-19T09:13:57.999Z,1.60
2022-12-19T09:16:28.366Z,1.60
2022-12-19T09:18:58.777Z,1.60
2022-12-19T09:21:31.887Z,1.60
2022-12-19T09:24:07.134Z,1.60
2022-12-19T09:26:35.785Z,1.60
2022-12-19T09:29:05.028Z,1.60
2022-12-19T09:31:39.516Z,1.60
2022-12-19T09:34:06.830Z,1.60
2022-12-19T09:36:34.508Z,1.60
2022-12-19T09:39:02.186Z,1.60
2022-12-19T09:42:13.812Z,1.60
2022-12-19T09:45:31.799Z,1.60
2022-12-19T09:48:01.562Z,1.60
2022-12-19T09:50:41.173Z,1.60
2022-12-19T09:53:39.187Z,1.60
2022-12-19T09:56:15.794Z,1.60
2022-12-19T09:59:08.548Z,1.60
2022-12-19T10:01:56.204Z,1.60
2022-12-19T10:04:28.110Z,1.60
2022-12-19T10:07:11.272Z,1.60
2022-12-19T10:12:25.380Z,1.50
2022-12-19T10:13:12.944Z,1.60
2022-12-19T10:16:03.759Z,1.60
2022-12-19T10:18:57.055Z,1.60
2022-12-19T10:22:18.354Z,1.60
2022-12-19T10:25:12.076Z,1.60
2022-12-19T10:27:59.183Z,1.60
2022-12-19T10:30:36.518Z,1.60
2022-12-19T10:33:49.964Z,1.60
2022-12-19T10:36:17.407Z,1.60
2022-12-19T10:39:22.429Z,1.50
2022-12-19T10:41:58.731Z,1.50
2022-12-19T10:44:54.082Z,1.50
2022-12-19T10:48:00.532Z,1.60
2022-12-19T10:50:30.717Z,1.50
2022-12-19T11:26:14.601Z,1.60
2022-12-19T11:29:32.821Z,1.60
2022-12-19T11:32:42.859Z,1.60
2022-12-19T11:35:24.270Z,1.60
2022-12-19T11:38:06.653Z,1.70
2022-12-19T11:40:48.561Z,1.70
2022-12-19T11:43:45.420Z,1.70
2022-12-19T11:46:26.095Z,1.60
2022-12-19T11:49:10.027Z,1.70
2022-12-19T11:52:03.188Z,1.70
2022-12-19T11:54:36.519Z,1.70
2022-12-19T11:57:03.978Z,1.70
2022-12-19T11:59:36.355Z,1.70
2022-12-19T12:02:18.702Z,1.70
2022-12-19T12:05:26.598Z,1.70
2022-12-19T12:10:07.729Z,1.70
2022-12-19T12:18:47.805Z,1.70
2022-12-19T12:28:51.555Z,1.70
2022-12-19T12:31:01.887Z,1.80
2022-12-19T12:31:39.983Z,1.70
2022-12-19T12:31:43.766Z,1.70
2022-12-19T12:32:02.998Z,1.80
2022-12-19T12:32:04.344Z,1.70
2022-12-19T12:35:42.534Z,1.80
2022-12-19T12:40:53.570Z,1.80
2022-12-19T12:43:35.963Z,1.80
2022-12-19T12:46:12.886Z,1.80
2022-12-19T12:48:57.181Z,1.80
2022-12-19T12:51:26.560Z,1.80
2022-12-19T12:54:07.734Z,1.80
2022-12-19T12:56:37.166Z,1.80
2022-12-19T12:59:26.488Z,1.80
2022-12-19T13:01:59.918Z,1.90
2022-12-19T13:04:43.408Z,1.90
2022-12-19T13:07:30.463Z,1.90
2022-12-19T13:10:13.015Z,1.90
2022-12-19T13:13:17.374Z,1.90
2022-12-19T13:15:47.230Z,1.90
2022-12-19T13:18:37.826Z,1.90
2022-12-19T13:21:08.896Z,1.90
2022-12-19T13:23:36.136Z,1.90
2022-12-19T13:26:04.183Z,1.90
2022-12-19T13:28:31.423Z,1.90
2022-12-19T13:31:18.480Z,1.90
2022-12-19T13:33:51.941Z,1.90
2022-12-19T13:39:50.089Z,1.90
2022-12-19T13:40:20.332Z,2.00
2022-12-19T13:43:25.817Z,2.00
2022-12-19T13:46:29.213Z,1.90
2022-12-19T13:49:12.310Z,1.20
2022-12-19T13:51:48.755Z,0.80
2022-12-19T13:54:50.453Z,1.50
2022-12-19T13:57:29.057Z,1.50
2022-12-19T14:00:08.155Z,1.70
2022-12-19T14:02:46.327Z,1.80
2022-12-19T14:05:44.534Z,1.90
2022-12-19T14:08:25.175Z,1.90
2022-12-19T14:11:43.068Z,1.90
2022-12-19T14:14:29.638Z,2.00
2022-12-19T14:17:13.440Z,1.90
2022-12-19T14:19:45.958Z,2.00
2022-12-19T14:22:25.171Z,2.00
2022-12-19T14:24:54.440Z,2.00
2022-12-19T14:28:17.072Z,2.00
2022-12-19T14:30:34.932Z,2.00
2022-12-19T14:33:43.766Z,2.00
2022-12-19T14:36:15.204Z,2.00
2022-12-19T14:39:23.171Z,2.00
2022-12-19T14:42:04.950Z,2.00
2022-12-19T14:51:25.113Z,2.00
2022-12-19T14:54:04.575Z,2.00
2022-12-19T14:54:28.280Z,2.00
2022-12-19T14:54:50.653Z,2.00
2022-12-19T14:59:46.233Z,2.00
2022-12-19T15:02:32.571Z,2.00
2022-12-19T15:05:14.062Z,2.10
2022-12-19T15:07:49.598Z,2.10
2022-12-19T15:11:00.652Z,2.10
2022-12-19T15:14:53.595Z,2.10
2022-12-19T15:16:29.022Z,2.10
2022-12-19T15:19:04.491Z,2.10
2022-12-19T15:21:32.183Z,2.10
2022-12-19T15:23:59.118Z,2.10
2022-12-19T15:26:34.697Z,2.10
2022-12-19T15:29:06.787Z,2.10
2022-12-19T15:31:41.344Z,2.20
2022-12-19T15:34:41.601Z,2.10
2022-12-19T15:37:17.007Z,2.10
2022-12-19T15:39:45.249Z,2.10
2022-12-19T15:42:27.149Z,2.10
2022-12-19T15:44:58.112Z,2.10
2022-12-19T15:47:37.131Z,2.00
2022-12-19T15:50:28.376Z,2.00
2022-12-19T15:52:59.483Z,2.00
2022-12-19T15:55:30.583Z,2.00
2022-12-19T15:58:06.162Z,2.00
2022-12-19T16:00:36.528Z,2.00
2022-12-19T16:05:52.230Z,2.20
2022-12-19T16:08:25.200Z,2.10
2022-12-19T16:11:01.884Z,2.10
2022-12-19T16:13:36.392Z,2.00
2022-12-19T16:16:09.204Z,2.00
2022-12-19T16:18:40.601Z,2.00
2022-12-19T16:21:17.706Z,2.00
2022-12-19T16:23:44.955Z,2.00
2022-12-19T16:26:34.389Z,2.00
2022-12-19T16:29:02.402Z,2.00
2022-12-19T16:31:29.639Z,2.00
2022-12-19T16:33:57.287Z,2.00
2022-12-19T16:36:24.399Z,2.00
2022-12-19T16:38:51.807Z,2.00
2022-12-19T16:41:25.131Z,2.00
2022-12-19T16:43:53.029Z,2.00
2022-12-19T16:46:23.710Z,2.00
2022-12-19T16:48:51.132Z,2.00
2022-12-19T16:51:24.132Z,2.00
2022-12-19T16:53:54.494Z,1.90
2022-12-19T16:56:38.538Z,2.00
2022-12-19T16:59:20.952Z,2.00
2022-12-19T17:01:49.118Z,2.00
2022-12-19T17:04:21.573Z,2.00
2022-12-19T17:06:50.560Z,2.00
2022-12-19T17:09:23.304Z,2.00
2022-12-19T17:11:59.782Z,2.00
2022-12-19T17:14:34.438Z,2.00
2022-12-19T17:17:01.691Z,1.90
2022-12-19T17:19:38.573Z,1.90
2022-12-19T17:22:18.676Z,1.90
2022-12-19T17:24:48.337Z,1.90
2022-12-19T17:27:17.342Z,1.90
2022-12-19T17:29:45.547Z,1.90
2022-12-19T17:32:23.280Z,1.90
2022-12-19T17:34:52.665Z,1.90
2022-12-19T17:37:19.812Z,1.90
2022-12-19T17:39:48.393Z,1.90
2022-12-19T17:42:24.643Z,1.90
2022-12-19T17:44:52.245Z,1.90
2022-12-19T17:47:20.943Z,1.90
2022-12-19T17:49:49.515Z,1.90
2022-12-19T17:52:19.844Z,1.90
2022-12-19T17:54:47.302Z,1.90
2022-12-19T17:57:16.528Z,1.90
2022-12-19T17:59:46.512Z,1.90
2022-12-19T18:02:25.121Z,1.90
2022-12-19T18:04:53.949Z,1.90
2022-12-19T18:07:21.253Z,1.90
2022-12-19T18:09:48.953Z,1.90
2022-12-19T18:12:16.165Z,1.90
2022-12-19T18:14:43.526Z,1.90
2022-12-19T18:17:23.841Z,1.90
2022-12-19T18:19:51.783Z,1.90
2022-12-19T18:22:18.679Z,1.90
2022-12-19T18:24:46.099Z,1.80
2022-12-19T18:27:14.130Z,1.80
2022-12-19T18:29:41.449Z,1.80
2022-12-19T18:32:19.298Z,1.80
2022-12-19T18:34:46.757Z,1.80
2022-12-19T18:37:15.897Z,1.80
2022-12-19T18:39:43.211Z,1.80
2022-12-19T18:42:20.615Z,1.80
2022-12-19T18:44:48.044Z,1.80
2022-12-19T18:47:23.474Z,1.80
2022-12-19T18:49:52.244Z,1.80
2022-12-19T18:52:19.212Z,1.80
2022-12-19T18:54:46.451Z,1.80
2022-12-19T18:57:14.528Z,1.80
2022-12-19T18:59:41.806Z,1.80
2022-12-19T19:02:41.828Z,1.80
2022-12-19T19:05:16.989Z,1.80
2022-12-19T19:07:44.896Z,1.80
2022-12-19T19:10:41.790Z,1.80
2022-12-19T19:13:13.012Z,1.80
2022-12-19T19:15:57.462Z,1.80
2022-12-19T19:18:29.800Z,1.70
2022-12-19T19:21:01.273Z,1.70
2022-12-19T19:23:56.709Z,1.70
2022-12-19T19:26:24.205Z,1.70
2022-12-19T19:28:52.685Z,1.70
2022-12-19T19:31:26.528Z,1.80
2022-12-19T19:34:02.939Z,1.70
2022-12-19T19:36:35.858Z,1.70
2022-12-19T19:39:04.554Z,1.70
2022-12-19T19:41:34.134Z,1.70
2022-12-19T19:44:02.327Z,1.70
2022-12-19T19:46:29.652Z,1.70
2022-12-19T19:48:57.155Z,1.70
2022-12-19T19:51:24.840Z,1.70
2022-12-19T19:53:51.964Z,1.70
2022-12-19T19:56:19.416Z,1.80
2022-12-19T19:58:46.534Z,1.80
2022-12-19T20:01:14.500Z,1.70
2022-12-19T20:03:42.968Z,1.70
2022-12-19T20:06:11.057Z,1.80
2022-12-19T20:08:40.051Z,1.70
2022-12-19T20:11:10.462Z,1.70
2022-12-19T20:13:38.487Z,1.80
2022-12-19T20:16:12.675Z,1.80
2022-12-19T20:18:45.925Z,1.70
2022-12-19T20:21:14.025Z,1.80
2022-12-19T20:23:43.267Z,1.80
2022-12-19T20:26:16.244Z,1.80
2022-12-19T20:28:49.148Z,1.80
2022-12-19T20:31:23.497Z,1.80
2022-12-19T20:33:53.065Z,1.80
2022-12-19T20:36:21.608Z,1.80
2022-12-19T20:38:49.413Z,1.80
2022-12-19T20:41:17.984Z,1.80
2022-12-19T20:43:45.440Z,1.80
2022-12-19T20:46:17.794Z,1.80
2022-12-19T20:48:46.863Z,1.80
2022-12-19T20:51:16.175Z,1.80
2022-12-19T20:53:43.497Z,1.80
2022-12-19T20:56:18.030Z,1.80
2022-12-19T20:58:46.387Z,1.80
2022-12-19T21:01:22.589Z,1.80
2022-12-19T21:03:50.550Z,1.80
2022-12-19T21:06:20.567Z,1.80
2022-12-19T21:08:47.956Z,1.80
2022-12-19T21:11:15.921Z,1.80
2022-12-19T21:13:44.561Z,1.80
2022-12-19T21:16:17.638Z,1.80
2022-12-19T21:18:47.199Z,1.80
2022-12-19T21:21:20.124Z,1.80
2022-12-19T21:23:47.634Z,1.80
2022-12-19T21:26:15.186Z,1.90
2022-12-19T21:28:43.008Z,1.80
2022-12-19T21:31:23.500Z,1.80
2022-12-19T21:33:54.199Z,1.80
2022-12-19T21:36:24.085Z,1.80
2022-12-19T21:38:56.268Z,1.80
2022-12-19T21:41:24.017Z,1.90
2022-12-19T21:43:55.438Z,1.90
2022-12-19T21:46:26.842Z,1.80
2022-12-19T21:48:56.463Z,1.90
2022-12-19T21:51:28.658Z,1.90
2022-12-19T21:54:00.434Z,1.90
2022-12-19T21:56:32.075Z,1.80
2022-12-19T21:59:03.287Z,1.90
2022-12-19T22:01:31.739Z,1.90
2022-12-19T22:04:02.102Z,1.90
2022-12-19T22:06:32.408Z,1.90
2022-12-19T22:09:00.986Z,1.90
2022-12-19T22:11:30.168Z,1.90
2022-12-19T22:14:00.667Z,1.90
2022-12-19T22:16:29.352Z,1.90
2022-12-19T22:18:56.789Z,1.90
2022-12-19T22:21:25.541Z,1.80
2022-12-19T22:23:57.517Z,1.90
2022-12-19T22:26:27.652Z,1.90
2022-12-19T22:28:56.861Z,1.90
2022-12-19T22:31:30.087Z,1.90
2022-12-19T22:34:01.435Z,2.00
2022-12-19T22:36:31.902Z,2.00
2022-12-19T22:39:02.042Z,2.00
2022-12-19T22:41:30.309Z,2.00
2022-12-19T22:43:57.360Z,1.90
2022-12-19T22:46:28.401Z,1.90
2022-12-19T22:48:58.703Z,1.90
2022-12-19T22:51:28.416Z,1.90
2022-12-19T22:53:56.375Z,1.90
2022-12-19T22:56:28.015Z,1.90
2022-12-19T22:58:59.937Z,1.90
2022-12-19T23:01:32.424Z,1.90
2022-12-19T23:04:02.410Z,1.90
2022-12-19T23:06:33.485Z,1.90
2022-12-19T23:09:01.566Z,1.90
2022-12-19T23:11:34.082Z,1.90
2022-12-19T23:14:03.633Z,1.90
2022-12-19T23:16:30.893Z,1.90
2022-12-19T23:18:58.331Z,1.90
2022-12-19T23:21:26.530Z,1.90
2022-12-19T23:23:55.700Z,1.90
2022-12-19T23:26:26.455Z,1.90
2022-12-19T23:29:05.394Z,1.90
2022-12-19T23:39:18.564Z,2.00
2022-12-19T23:41:45.661Z,1.90
2022-12-19T23:44:13.301Z,2.00
2022-12-19T23:46:40.240Z,1.90
2022-12-19T23:49:07.948Z,2.00
2022-12-19T23:51:35.151Z,1.90
2022-12-19T23:54:02.584Z,2.00
2022-12-19T23:56:32.491Z,2.00
2022-12-19T23:59:00.297Z,2.00
